sensor_id;sensor_type;location;lat;lon;timestamp;temperature;humidity
21481;DHT22;10902;48.158;8.634;2023-04-10T00:00:08;2.30;99.90
21481;DHT22;10902;48.158;8.634;2023-04-10T00:02:34;2.20;99.90
21481;DHT22;10902;48.158;8.634;2023-04-10T00:05:01;2.20;99.90
21481;DHT22;10902;48.158;8.634;2023-04-10T00:07:27;2.40;99.90
21481;DHT22;10902;48.158;8.634;2023-04-10T00:09:53;2.30;99.90
21481;DHT22;10902;48.158;8.634;2023-04-10T00:12:18;2.00;99.90
21481;DHT22;10902;48.158;8.634;2023-04-10T00:14:44;2.10;99.90
21481;DHT22;10902;48.158;8.634;2023-04-10T00:17:10;2.10;99.90
21481;DHT22;10902;48.158;8.634;2023-04-10T00:19:36;1.90;99.90
21481;DHT22;10902;48.158;8.634;2023-04-10T00:22:01;1.70;99.90
21481;DHT22;10902;48.158;8.634;2023-04-10T00:24:27;1.70;99.90
21481;DHT22;10902;48.158;8.634;2023-04-10T00:26:52;1.50;99.90
21481;DHT22;10902;48.158;8.634;2023-04-10T00:29:18;1.20;99.90
21481;DHT22;10902;48.158;8.634;2023-04-10T00:31:44;1.10;99.90
21481;DHT22;10902;48.158;8.634;2023-04-10T00:34:09;1.00;99.90
21481;DHT22;10902;48.158;8.634;2023-04-10T00:36:36;1.00;99.90
21481;DHT22;10902;48.158;8.634;2023-04-10T00:39:01;1.00;99.90
21481;DHT22;10902;48.158;8.634;2023-04-10T00:41:27;1.20;99.90
21481;DHT22;10902;48.158;8.634;2023-04-10T00:43:57;1.30;99.90
21481;DHT22;10902;48.158;8.634;2023-04-10T00:46:23;1.50;99.90
21481;DHT22;10902;48.158;8.634;2023-04-10T00:48:50;1.40;99.90
21481;DHT22;10902;48.158;8.634;2023-04-10T00:51:17;1.40;99.90
21481;DHT22;10902;48.158;8.634;2023-04-10T00:53:49;1.40;99.90
21481;DHT22;10902;48.158;8.634;2023-04-10T00:56:19;1.30;99.90
21481;DHT22;10902;48.158;8.634;2023-04-10T00:58:45;1.40;99.90
21481;DHT22;10902;48.158;8.634;2023-04-10T01:01:11;1.30;99.90
21481;DHT22;10902;48.158;8.634;2023-04-10T01:03:38;1.40;99.90
21481;DHT22;10902;48.158;8.634;2023-04-10T01:06:07;1.40;99.90
21481;DHT22;10902;48.158;8.634;2023-04-10T01:16:51;0.80;99.90
21481;DHT22;10902;48.158;8.634;2023-04-10T01:22:05;0.80;99.90
21481;DHT22;10902;48.158;8.634;2023-04-10T01:30:28;1.00;99.90
21481;DHT22;10902;48.158;8.634;2023-04-10T01:32:57;1.10;99.90
21481;DHT22;10902;48.158;8.634;2023-04-10T01:35:25;1.20;99.90
21481;DHT22;10902;48.158;8.634;2023-04-10T01:37:54;1.30;99.90
21481;DHT22;10902;48.158;8.634;2023-04-10T01:40:21;1.20;99.90
21481;DHT22;10902;48.158;8.634;2023-04-10T01:42:52;1.40;99.90
21481;DHT22;10902;48.158;8.634;2023-04-10T01:45:28;1.40;99.90
21481;DHT22;10902;48.158;8.634;2023-04-10T01:47:54;1.40;99.90
21481;DHT22;10902;48.158;8.634;2023-04-10T01:50:21;1.60;99.90
21481;DHT22;10902;48.158;8.634;2023-04-10T01:52:50;1.70;99.90
21481;DHT22;10902;48.158;8.634;2023-04-10T01:55:21;1.60;99.90
21481;DHT22;10902;48.158;8.634;2023-04-10T01:57:47;1.50;99.90
21481;DHT22;10902;48.158;8.634;2023-04-10T02:00:14;1.60;99.90
21481;DHT22;10902;48.158;8.634;2023-04-10T02:02:41;1.90;99.90
21481;DHT22;10902;48.158;8.634;2023-04-10T02:05:07;2.00;99.90
21481;DHT22;10902;48.158;8.634;2023-04-10T02:10:19;1.80;99.90
21481;DHT22;10902;48.158;8.634;2023-04-10T02:12:52;1.40;99.90
21481;DHT22;10902;48.158;8.634;2023-04-10T02:15:21;1.30;99.90
21481;DHT22;10902;48.158;8.634;2023-04-10T02:17:48;0.90;99.90
21481;DHT22;10902;48.158;8.634;2023-04-10T02:20:15;0.70;99.90
21481;DHT22;10902;48.158;8.634;2023-04-10T02:22:43;0.50;99.90
21481;DHT22;10902;48.158;8.634;2023-04-10T02:25:09;0.30;99.90
21481;DHT22;10902;48.158;8.634;2023-04-10T02:27:36;0.40;99.90
21481;DHT22;10902;48.158;8.634;2023-04-10T02:30:02;0.60;99.90
21481;DHT22;10902;48.158;8.634;2023-04-10T02:32:29;0.50;99.90
21481;DHT22;10902;48.158;8.634;2023-04-10T02:34:55;0.50;99.90
21481;DHT22;10902;48.158;8.634;2023-04-10T02:37:23;0.60;99.90
21481;DHT22;10902;48.158;8.634;2023-04-10T02:39:48;0.50;99.90
21481;DHT22;10902;48.158;8.634;2023-04-10T02:42:14;0.40;99.90
21481;DHT22;10902;48.158;8.634;2023-04-10T02:44:40;0.40;99.90
21481;DHT22;10902;48.158;8.634;2023-04-10T02:47:06;0.20;99.90
21481;DHT22;10902;48.158;8.634;2023-04-10T02:49:32;0.30;99.90
21481;DHT22;10902;48.158;8.634;2023-04-10T02:51:59;0.40;99.90
21481;DHT22;10902;48.158;8.634;2023-04-10T02:54:25;0.50;99.90
21481;DHT22;10902;48.158;8.634;2023-04-10T02:56:51;0.40;99.90
21481;DHT22;10902;48.158;8.634;2023-04-10T02:59:16;0.30;99.90
21481;DHT22;10902;48.158;8.634;2023-04-10T03:01:42;-0.10;99.90
21481;DHT22;10902;48.158;8.634;2023-04-10T03:04:08;-0.50;99.90
21481;DHT22;10902;48.158;8.634;2023-04-10T03:06:34;-0.40;99.90
21481;DHT22;10902;48.158;8.634;2023-04-10T03:08:59;-0.30;99.90
21481;DHT22;10902;48.158;8.634;2023-04-10T03:11:25;-0.30;99.90
21481;DHT22;10902;48.158;8.634;2023-04-10T03:13:51;-0.40;99.90
21481;DHT22;10902;48.158;8.634;2023-04-10T03:16:17;-0.60;99.90
21481;DHT22;10902;48.158;8.634;2023-04-10T03:18:43;-0.70;99.90
21481;DHT22;10902;48.158;8.634;2023-04-10T03:21:09;-0.70;99.90
21481;DHT22;10902;48.158;8.634;2023-04-10T03:23:35;-0.40;99.90
21481;DHT22;10902;48.158;8.634;2023-04-10T03:26:01;-0.40;99.90
21481;DHT22;10902;48.158;8.634;2023-04-10T03:28:29;-0.60;99.90
21481;DHT22;10902;48.158;8.634;2023-04-10T03:30:55;-0.80;99.90
21481;DHT22;10902;48.158;8.634;2023-04-10T03:33:20;-1.00;99.90
21481;DHT22;10902;48.158;8.634;2023-04-10T03:35:46;-1.10;99.90
21481;DHT22;10902;48.158;8.634;2023-04-10T03:38:12;-1.20;99.90
21481;DHT22;10902;48.158;8.634;2023-04-10T03:40:37;-1.10;99.90
21481;DHT22;10902;48.158;8.634;2023-04-10T03:43:03;-1.10;99.90
21481;DHT22;10902;48.158;8.634;2023-04-10T03:45:29;-1.10;99.90
21481;DHT22;10902;48.158;8.634;2023-04-10T03:47:54;-1.20;99.90
21481;DHT22;10902;48.158;8.634;2023-04-10T03:50:20;-1.10;99.90
21481;DHT22;10902;48.158;8.634;2023-04-10T03:52:46;-1.10;99.90
21481;DHT22;10902;48.158;8.634;2023-04-10T03:55:14;-1.10;99.90
21481;DHT22;10902;48.158;8.634;2023-04-10T03:57:44;-1.20;99.90
21481;DHT22;10902;48.158;8.634;2023-04-10T04:00:11;-1.30;99.90
21481;DHT22;10902;48.158;8.634;2023-04-10T04:02:36;-1.30;99.90
21481;DHT22;10902;48.158;8.634;2023-04-10T04:05:02;-1.40;99.90
21481;DHT22;10902;48.158;8.634;2023-04-10T04:07:28;-1.50;99.90
21481;DHT22;10902;48.158;8.634;2023-04-10T04:09:53;-1.50;99.90
21481;DHT22;10902;48.158;8.634;2023-04-10T04:12:19;-1.30;99.90
21481;DHT22;10902;48.158;8.634;2023-04-10T04:14:45;-1.20;99.90
21481;DHT22;10902;48.158;8.634;2023-04-10T04:17:11;-1.10;99.90
21481;DHT22;10902;48.158;8.634;2023-04-10T04:19:36;-0.90;99.90
21481;DHT22;10902;48.158;8.634;2023-04-10T04:22:02;-0.80;99.90
21481;DHT22;10902;48.158;8.634;2023-04-10T04:24:28;-0.80;99.90
21481;DHT22;10902;48.158;8.634;2023-04-10T04:26:53;-0.90;99.90
21481;DHT22;10902;48.158;8.634;2023-04-10T04:29:20;-1.00;99.90
21481;DHT22;10902;48.158;8.634;2023-04-10T04:31:46;-1.00;99.90
21481;DHT22;10902;48.158;8.634;2023-04-10T04:34:11;-1.00;99.90
21481;DHT22;10902;48.158;8.634;2023-04-10T04:36:37;-1.10;99.90
21481;DHT22;10902;48.158;8.634;2023-04-10T04:39:03;-1.10;99.90
21481;DHT22;10902;48.158;8.634;2023-04-10T04:41:28;-1.10;99.90
21481;DHT22;10902;48.158;8.634;2023-04-10T04:43:57;-1.10;99.90
21481;DHT22;10902;48.158;8.634;2023-04-10T04:46:22;-1.20;99.90
21481;DHT22;10902;48.158;8.634;2023-04-10T04:48:48;-1.20;99.90
21481;DHT22;10902;48.158;8.634;2023-04-10T04:51:13;-1.30;99.90
21481;DHT22;10902;48.158;8.634;2023-04-10T04:53:39;-1.40;99.90
21481;DHT22;10902;48.158;8.634;2023-04-10T04:56:05;-1.50;99.90
21481;DHT22;10902;48.158;8.634;2023-04-10T04:58:30;-1.50;99.90
21481;DHT22;10902;48.158;8.634;2023-04-10T05:00:56;-1.60;99.90
21481;DHT22;10902;48.158;8.634;2023-04-10T05:03:21;-1.70;99.90
21481;DHT22;10902;48.158;8.634;2023-04-10T05:05:47;-1.60;99.90
21481;DHT22;10902;48.158;8.634;2023-04-10T05:08:13;-1.30;99.90
21481;DHT22;10902;48.158;8.634;2023-04-10T05:10:38;-1.20;99.90
21481;DHT22;10902;48.158;8.634;2023-04-10T05:13:04;-1.00;99.90
21481;DHT22;10902;48.158;8.634;2023-04-10T05:15:30;-0.80;99.90
21481;DHT22;10902;48.158;8.634;2023-04-10T05:17:55;-0.70;99.90
21481;DHT22;10902;48.158;8.634;2023-04-10T05:20:21;-0.80;99.90
21481;DHT22;10902;48.158;8.634;2023-04-10T05:22:47;-0.80;99.90
21481;DHT22;10902;48.158;8.634;2023-04-10T05:25:13;-0.70;99.90
21481;DHT22;10902;48.158;8.634;2023-04-10T05:27:38;-0.80;99.90
21481;DHT22;10902;48.158;8.634;2023-04-10T05:30:04;-0.80;99.90
21481;DHT22;10902;48.158;8.634;2023-04-10T05:32:30;-0.70;99.90
21481;DHT22;10902;48.158;8.634;2023-04-10T05:34:55;-0.70;99.90
21481;DHT22;10902;48.158;8.634;2023-04-10T05:37:21;-0.80;99.90
21481;DHT22;10902;48.158;8.634;2023-04-10T05:39:47;-0.70;99.90
21481;DHT22;10902;48.158;8.634;2023-04-10T05:42:12;-0.60;99.90
21481;DHT22;10902;48.158;8.634;2023-04-10T05:44:38;-0.40;99.90
21481;DHT22;10902;48.158;8.634;2023-04-10T05:47:04;-0.30;99.90
21481;DHT22;10902;48.158;8.634;2023-04-10T05:49:30;-0.30;99.90
21481;DHT22;10902;48.158;8.634;2023-04-10T05:51:55;-0.30;99.90
21481;DHT22;10902;48.158;8.634;2023-04-10T05:54:21;-0.20;99.90
21481;DHT22;10902;48.158;8.634;2023-04-10T05:56:47;-0.10;99.90
21481;DHT22;10902;48.158;8.634;2023-04-10T05:59:12;0.00;99.90
21481;DHT22;10902;48.158;8.634;2023-04-10T06:01:39;0.00;99.90
21481;DHT22;10902;48.158;8.634;2023-04-10T06:04:05;0.00;99.90
21481;DHT22;10902;48.158;8.634;2023-04-10T06:06:31;0.10;99.90
21481;DHT22;10902;48.158;8.634;2023-04-10T06:08:57;0.20;99.90
21481;DHT22;10902;48.158;8.634;2023-04-10T06:11:22;0.30;99.90
21481;DHT22;10902;48.158;8.634;2023-04-10T06:13:48;0.30;99.90
21481;DHT22;10902;48.158;8.634;2023-04-10T06:16:13;0.30;99.90
21481;DHT22;10902;48.158;8.634;2023-04-10T06:18:40;0.40;99.90
21481;DHT22;10902;48.158;8.634;2023-04-10T06:21:06;0.30;99.90
21481;DHT22;10902;48.158;8.634;2023-04-10T06:23:31;0.30;99.90
21481;DHT22;10902;48.158;8.634;2023-04-10T06:25:57;0.20;99.90
21481;DHT22;10902;48.158;8.634;2023-04-10T06:28:23;0.20;99.90
21481;DHT22;10902;48.158;8.634;2023-04-10T06:30:48;0.20;99.90
21481;DHT22;10902;48.158;8.634;2023-04-10T06:33:14;0.30;99.90
21481;DHT22;10902;48.158;8.634;2023-04-10T06:35:40;0.30;99.90
21481;DHT22;10902;48.158;8.634;2023-04-10T06:38:06;0.40;99.90
21481;DHT22;10902;48.158;8.634;2023-04-10T06:40:32;0.40;99.90
21481;DHT22;10902;48.158;8.634;2023-04-10T06:42:59;0.40;99.90
21481;DHT22;10902;48.158;8.634;2023-04-10T06:45:25;0.40;99.90
21481;DHT22;10902;48.158;8.634;2023-04-10T06:47:51;0.60;99.90
21481;DHT22;10902;48.158;8.634;2023-04-10T06:50:17;0.70;99.90
21481;DHT22;10902;48.158;8.634;2023-04-10T06:52:43;0.80;99.90
21481;DHT22;10902;48.158;8.634;2023-04-10T06:55:09;0.90;99.90
21481;DHT22;10902;48.158;8.634;2023-04-10T06:57:35;1.00;99.90
21481;DHT22;10902;48.158;8.634;2023-04-10T07:00:01;1.10;99.90
21481;DHT22;10902;48.158;8.634;2023-04-10T07:02:26;1.30;99.90
21481;DHT22;10902;48.158;8.634;2023-04-10T07:04:52;1.50;99.90
21481;DHT22;10902;48.158;8.634;2023-04-10T07:07:18;1.70;99.90
21481;DHT22;10902;48.158;8.634;2023-04-10T07:09:43;1.90;99.90
21481;DHT22;10902;48.158;8.634;2023-04-10T07:12:09;2.10;99.90
21481;DHT22;10902;48.158;8.634;2023-04-10T07:14:35;2.30;99.90
21481;DHT22;10902;48.158;8.634;2023-04-10T07:17:01;2.50;99.90
21481;DHT22;10902;48.158;8.634;2023-04-10T07:19:27;2.70;99.90
21481;DHT22;10902;48.158;8.634;2023-04-10T07:21:52;2.90;99.90
21481;DHT22;10902;48.158;8.634;2023-04-10T07:24:18;3.10;99.90
21481;DHT22;10902;48.158;8.634;2023-04-10T07:26:44;3.30;99.90
21481;DHT22;10902;48.158;8.634;2023-04-10T07:29:10;3.50;99.90
21481;DHT22;10902;48.158;8.634;2023-04-10T07:31:35;3.70;99.90
21481;DHT22;10902;48.158;8.634;2023-04-10T07:34:02;3.90;99.90
21481;DHT22;10902;48.158;8.634;2023-04-10T07:36:28;4.00;99.90
21481;DHT22;10902;48.158;8.634;2023-04-10T07:38:54;4.10;99.90
21481;DHT22;10902;48.158;8.634;2023-04-10T07:41:20;4.40;99.90
21481;DHT22;10902;48.158;8.634;2023-04-10T07:43:46;4.70;99.90
21481;DHT22;10902;48.158;8.634;2023-04-10T07:46:13;4.80;99.90
21481;DHT22;10902;48.158;8.634;2023-04-10T07:48:39;5.00;99.90
21481;DHT22;10902;48.158;8.634;2023-04-10T07:51:04;5.30;99.90
21481;DHT22;10902;48.158;8.634;2023-04-10T07:53:33;5.40;99.90
21481;DHT22;10902;48.158;8.634;2023-04-10T07:55:59;5.60;99.90
21481;DHT22;10902;48.158;8.634;2023-04-10T07:58:25;5.70;99.90
21481;DHT22;10902;48.158;8.634;2023-04-10T08:00:50;6.00;99.90
21481;DHT22;10902;48.158;8.634;2023-04-10T08:03:16;6.20;99.90
21481;DHT22;10902;48.158;8.634;2023-04-10T08:05:41;6.50;99.90
21481;DHT22;10902;48.158;8.634;2023-04-10T08:08:07;6.70;99.90
21481;DHT22;10902;48.158;8.634;2023-04-10T08:10:35;6.90;99.90
21481;DHT22;10902;48.158;8.634;2023-04-10T08:13:02;7.00;99.90
21481;DHT22;10902;48.158;8.634;2023-04-10T08:15:27;7.10;99.90
21481;DHT22;10902;48.158;8.634;2023-04-10T08:17:53;7.40;99.90
21481;DHT22;10902;48.158;8.634;2023-04-10T08:20:18;7.50;99.90
21481;DHT22;10902;48.158;8.634;2023-04-10T08:22:44;7.70;99.90
21481;DHT22;10902;48.158;8.634;2023-04-10T08:25:10;7.60;99.90
21481;DHT22;10902;48.158;8.634;2023-04-10T08:27:36;7.80;99.90
21481;DHT22;10902;48.158;8.634;2023-04-10T08:30:02;8.10;99.90
21481;DHT22;10902;48.158;8.634;2023-04-10T08:32:28;8.30;99.90
21481;DHT22;10902;48.158;8.634;2023-04-10T08:34:53;8.60;99.90
21481;DHT22;10902;48.158;8.634;2023-04-10T08:37:19;8.90;99.90
21481;DHT22;10902;48.158;8.634;2023-04-10T08:39:45;9.20;99.90
21481;DHT22;10902;48.158;8.634;2023-04-10T08:42:11;9.90;99.90
21481;DHT22;10902;48.158;8.634;2023-04-10T08:44:37;10.50;99.90
21481;DHT22;10902;48.158;8.634;2023-04-10T08:47:04;11.20;99.90
21481;DHT22;10902;48.158;8.634;2023-04-10T08:49:40;11.40;99.90
21481;DHT22;10902;48.158;8.634;2023-04-10T08:52:14;11.50;99.90
21481;DHT22;10902;48.158;8.634;2023-04-10T08:54:46;12.00;99.90
21481;DHT22;10902;48.158;8.634;2023-04-10T08:57:14;11.80;99.90
21481;DHT22;10902;48.158;8.634;2023-04-10T08:59:48;11.50;99.90
21481;DHT22;10902;48.158;8.634;2023-04-10T09:02:14;11.60;99.90
21481;DHT22;10902;48.158;8.634;2023-04-10T09:04:48;11.80;99.90
21481;DHT22;10902;48.158;8.634;2023-04-10T09:07:17;11.80;99.90
21481;DHT22;10902;48.158;8.634;2023-04-10T09:09:43;11.80;99.90
21481;DHT22;10902;48.158;8.634;2023-04-10T09:12:09;12.20;99.90
21481;DHT22;10902;48.158;8.634;2023-04-10T09:14:36;12.50;99.90
21481;DHT22;10902;48.158;8.634;2023-04-10T09:17:19;12.40;99.90
21481;DHT22;10902;48.158;8.634;2023-04-10T09:19:47;12.50;99.90
21481;DHT22;10902;48.158;8.634;2023-04-10T09:22:13;12.90;99.90
21481;DHT22;10902;48.158;8.634;2023-04-10T09:24:41;13.10;99.90
21481;DHT22;10902;48.158;8.634;2023-04-10T09:27:08;13.40;99.90
21481;DHT22;10902;48.158;8.634;2023-04-10T09:29:45;13.70;99.90
21481;DHT22;10902;48.158;8.634;2023-04-10T09:32:23;13.00;99.90
21481;DHT22;10902;48.158;8.634;2023-04-10T09:34:58;13.10;99.90
21481;DHT22;10902;48.158;8.634;2023-04-10T09:37:33;13.20;99.90
21481;DHT22;10902;48.158;8.634;2023-04-10T09:40:00;12.90;99.90
21481;DHT22;10902;48.158;8.634;2023-04-10T09:42:35;13.60;99.90
21481;DHT22;10902;48.158;8.634;2023-04-10T09:45:02;13.80;99.90
21481;DHT22;10902;48.158;8.634;2023-04-10T09:47:28;13.80;99.90
21481;DHT22;10902;48.158;8.634;2023-04-10T09:49:56;13.70;99.90
21481;DHT22;10902;48.158;8.634;2023-04-10T09:52:32;13.60;99.90
21481;DHT22;10902;48.158;8.634;2023-04-10T09:55:02;13.80;99.90
21481;DHT22;10902;48.158;8.634;2023-04-10T09:57:29;13.90;99.90
21481;DHT22;10902;48.158;8.634;2023-04-10T09:59:57;13.90;99.90
21481;DHT22;10902;48.158;8.634;2023-04-10T10:02:26;14.00;99.90
21481;DHT22;10902;48.158;8.634;2023-04-10T10:04:53;14.40;99.90
21481;DHT22;10902;48.158;8.634;2023-04-10T10:07:21;14.20;99.90
21481;DHT22;10902;48.158;8.634;2023-04-10T10:09:49;14.60;99.90
21481;DHT22;10902;48.158;8.634;2023-04-10T10:12:16;14.20;99.90
21481;DHT22;10902;48.158;8.634;2023-04-10T10:14:59;13.80;99.90
21481;DHT22;10902;48.158;8.634;2023-04-10T10:17:31;14.20;99.90
21481;DHT22;10902;48.158;8.634;2023-04-10T10:20:06;14.70;99.90
21481;DHT22;10902;48.158;8.634;2023-04-10T10:22:34;14.60;99.90
21481;DHT22;10902;48.158;8.634;2023-04-10T10:25:01;14.10;99.90
21481;DHT22;10902;48.158;8.634;2023-04-10T10:27:33;14.80;99.90
21481;DHT22;10902;48.158;8.634;2023-04-10T10:30:02;14.70;99.90
21481;DHT22;10902;48.158;8.634;2023-04-10T10:32:29;15.10;99.90
21481;DHT22;10902;48.158;8.634;2023-04-10T10:34:55;15.30;99.90
21481;DHT22;10902;48.158;8.634;2023-04-10T10:37:22;14.50;99.90
21481;DHT22;10902;48.158;8.634;2023-04-10T10:39:51;14.00;99.90
21481;DHT22;10902;48.158;8.634;2023-04-10T10:45:11;14.50;99.90
21481;DHT22;10902;48.158;8.634;2023-04-10T10:47:44;14.50;99.90
21481;DHT22;10902;48.158;8.634;2023-04-10T10:50:10;15.10;99.90
21481;DHT22;10902;48.158;8.634;2023-04-10T10:57:48;14.40;99.90
21481;DHT22;10902;48.158;8.634;2023-04-10T11:00:21;14.00;99.90
21481;DHT22;10902;48.158;8.634;2023-04-10T11:08:16;14.40;99.90
21481;DHT22;10902;48.158;8.634;2023-04-10T11:13:27;15.80;99.90
21481;DHT22;10902;48.158;8.634;2023-04-10T11:15:57;14.90;98.60
21481;DHT22;10902;48.158;8.634;2023-04-10T11:21:18;14.50;99.90
21481;DHT22;10902;48.158;8.634;2023-04-10T11:31:47;15.30;99.40
21481;DHT22;10902;48.158;8.634;2023-04-10T11:34:19;16.00;99.90
21481;DHT22;10902;48.158;8.634;2023-04-10T11:36:45;16.20;99.90
21481;DHT22;10902;48.158;8.634;2023-04-10T11:39:13;16.60;99.90
21481;DHT22;10902;48.158;8.634;2023-04-10T11:41:48;16.60;99.90
21481;DHT22;10902;48.158;8.634;2023-04-10T11:44:25;17.70;99.90
21481;DHT22;10902;48.158;8.634;2023-04-10T11:46:51;17.50;99.90
21481;DHT22;10902;48.158;8.634;2023-04-10T11:49:22;16.70;98.60
21481;DHT22;10902;48.158;8.634;2023-04-10T11:51:49;16.60;99.40
21481;DHT22;10902;48.158;8.634;2023-04-10T11:54:22;16.30;99.90
21481;DHT22;10902;48.158;8.634;2023-04-10T11:57:06;16.80;98.60
21481;DHT22;10902;48.158;8.634;2023-04-10T11:59:33;16.70;99.00
21481;DHT22;10902;48.158;8.634;2023-04-10T12:02:11;16.30;99.60
21481;DHT22;10902;48.158;8.634;2023-04-10T12:04:39;15.70;99.90
21481;DHT22;10902;48.158;8.634;2023-04-10T12:07:04;16.00;99.90
21481;DHT22;10902;48.158;8.634;2023-04-10T12:09:30;17.20;99.90
21481;DHT22;10902;48.158;8.634;2023-04-10T12:11:59;15.90;99.50
21481;DHT22;10902;48.158;8.634;2023-04-10T12:14:33;16.20;99.30
21481;DHT22;10902;48.158;8.634;2023-04-10T12:17:03;16.10;98.30
21481;DHT22;10902;48.158;8.634;2023-04-10T12:19:29;16.90;97.40
21481;DHT22;10902;48.158;8.634;2023-04-10T12:21:56;17.20;97.90
21481;DHT22;10902;48.158;8.634;2023-04-10T12:27:15;16.90;96.90
21481;DHT22;10902;48.158;8.634;2023-04-10T12:29:42;16.90;95.30
21481;DHT22;10902;48.158;8.634;2023-04-10T12:32:08;16.90;94.30
21481;DHT22;10902;48.158;8.634;2023-04-10T12:34:35;16.90;93.80
21481;DHT22;10902;48.158;8.634;2023-04-10T12:37:00;17.10;93.80
21481;DHT22;10902;48.158;8.634;2023-04-10T12:39:27;16.50;93.30
21481;DHT22;10902;48.158;8.634;2023-04-10T12:41:52;16.10;95.10
21481;DHT22;10902;48.158;8.634;2023-04-10T12:44:18;16.00;95.60
21481;DHT22;10902;48.158;8.634;2023-04-10T12:46:45;16.20;97.30
21481;DHT22;10902;48.158;8.634;2023-04-10T12:49:15;17.10;98.00
21481;DHT22;10902;48.158;8.634;2023-04-10T12:51:59;16.40;95.70
21481;DHT22;10902;48.158;8.634;2023-04-10T12:54:29;16.00;96.00
21481;DHT22;10902;48.158;8.634;2023-04-10T12:56:55;15.80;96.80
21481;DHT22;10902;48.158;8.634;2023-04-10T12:59:22;15.90;96.50
21481;DHT22;10902;48.158;8.634;2023-04-10T13:01:48;16.10;97.00
21481;DHT22;10902;48.158;8.634;2023-04-10T13:04:13;16.70;95.50
21481;DHT22;10902;48.158;8.634;2023-04-10T13:06:43;16.50;97.20
21481;DHT22;10902;48.158;8.634;2023-04-10T13:09:11;16.00;96.80
21481;DHT22;10902;48.158;8.634;2023-04-10T13:11:36;15.90;98.30
21481;DHT22;10902;48.158;8.634;2023-04-10T13:14:02;16.30;97.60
21481;DHT22;10902;48.158;8.634;2023-04-10T13:16:27;16.90;97.90
21481;DHT22;10902;48.158;8.634;2023-04-10T13:18:53;16.80;97.00
21481;DHT22;10902;48.158;8.634;2023-04-10T13:21:18;16.00;97.10
21481;DHT22;10902;48.158;8.634;2023-04-10T13:23:47;15.60;97.30
21481;DHT22;10902;48.158;8.634;2023-04-10T13:26:13;15.80;98.10
21481;DHT22;10902;48.158;8.634;2023-04-10T13:28:38;16.50;98.60
21481;DHT22;10902;48.158;8.634;2023-04-10T13:31:04;17.20;98.50
21481;DHT22;10902;48.158;8.634;2023-04-10T13:33:30;17.10;98.70
21481;DHT22;10902;48.158;8.634;2023-04-10T13:35:56;16.70;99.40
21481;DHT22;10902;48.158;8.634;2023-04-10T13:38:21;16.90;99.00
21481;DHT22;10902;48.158;8.634;2023-04-10T13:40:47;17.90;99.90
21481;DHT22;10902;48.158;8.634;2023-04-10T13:43:12;17.00;99.10
21481;DHT22;10902;48.158;8.634;2023-04-10T13:45:38;16.50;99.80
21481;DHT22;10902;48.158;8.634;2023-04-10T13:48:04;16.70;99.90
21481;DHT22;10902;48.158;8.634;2023-04-10T13:50:32;16.20;99.90
21481;DHT22;10902;48.158;8.634;2023-04-10T13:52:57;16.10;99.90
21481;DHT22;10902;48.158;8.634;2023-04-10T13:55:23;16.10;99.90
21481;DHT22;10902;48.158;8.634;2023-04-10T13:57:49;16.10;99.90
21481;DHT22;10902;48.158;8.634;2023-04-10T14:00:15;16.70;99.90
21481;DHT22;10902;48.158;8.634;2023-04-10T14:02:41;17.20;99.90
21481;DHT22;10902;48.158;8.634;2023-04-10T14:05:07;17.40;99.90
21481;DHT22;10902;48.158;8.634;2023-04-10T14:07:33;17.40;99.90
21481;DHT22;10902;48.158;8.634;2023-04-10T14:09:59;18.00;99.90
21481;DHT22;10902;48.158;8.634;2023-04-10T14:12:25;16.60;99.90
21481;DHT22;10902;48.158;8.634;2023-04-10T14:14:51;16.90;99.90
21481;DHT22;10902;48.158;8.634;2023-04-10T14:17:17;17.00;99.90
21481;DHT22;10902;48.158;8.634;2023-04-10T14:19:43;16.90;99.90
21481;DHT22;10902;48.158;8.634;2023-04-10T14:22:11;16.00;99.90
21481;DHT22;10902;48.158;8.634;2023-04-10T14:24:36;16.70;99.90
21481;DHT22;10902;48.158;8.634;2023-04-10T14:27:02;17.20;99.90
21481;DHT22;10902;48.158;8.634;2023-04-10T14:29:28;18.60;99.90
21481;DHT22;10902;48.158;8.634;2023-04-10T14:31:54;17.40;99.90
21481;DHT22;10902;48.158;8.634;2023-04-10T14:34:19;16.70;99.90
21481;DHT22;10902;48.158;8.634;2023-04-10T14:36:45;16.80;99.90
21481;DHT22;10902;48.158;8.634;2023-04-10T14:39:11;16.50;99.90
21481;DHT22;10902;48.158;8.634;2023-04-10T14:41:36;16.50;99.90
21481;DHT22;10902;48.158;8.634;2023-04-10T14:44:02;16.30;99.90
21481;DHT22;10902;48.158;8.634;2023-04-10T14:46:27;16.20;99.90
21481;DHT22;10902;48.158;8.634;2023-04-10T14:48:54;16.10;99.90
21481;DHT22;10902;48.158;8.634;2023-04-10T14:51:20;16.10;99.90
21481;DHT22;10902;48.158;8.634;2023-04-10T14:53:45;15.90;99.90
21481;DHT22;10902;48.158;8.634;2023-04-10T14:56:12;15.40;99.90
21481;DHT22;10902;48.158;8.634;2023-04-10T14:58:38;16.00;99.90
21481;DHT22;10902;48.158;8.634;2023-04-10T15:01:08;16.30;99.90
21481;DHT22;10902;48.158;8.634;2023-04-10T15:03:33;16.60;99.90
21481;DHT22;10902;48.158;8.634;2023-04-10T15:06:00;16.10;99.90
21481;DHT22;10902;48.158;8.634;2023-04-10T15:08:25;15.60;99.90
21481;DHT22;10902;48.158;8.634;2023-04-10T15:10:51;15.50;99.90
21481;DHT22;10902;48.158;8.634;2023-04-10T15:13:18;15.40;99.90
21481;DHT22;10902;48.158;8.634;2023-04-10T15:15:44;15.50;99.90
21481;DHT22;10902;48.158;8.634;2023-04-10T15:18:10;15.40;99.90
21481;DHT22;10902;48.158;8.634;2023-04-10T15:20:35;15.60;99.90
21481;DHT22;10902;48.158;8.634;2023-04-10T15:23:01;15.70;99.90
21481;DHT22;10902;48.158;8.634;2023-04-10T15:25:27;15.40;99.90
21481;DHT22;10902;48.158;8.634;2023-04-10T15:27:56;15.30;99.90
21481;DHT22;10902;48.158;8.634;2023-04-10T15:30:21;15.50;99.90
21481;DHT22;10902;48.158;8.634;2023-04-10T15:32:47;15.40;99.90
21481;DHT22;10902;48.158;8.634;2023-04-10T15:35:13;15.20;99.90
21481;DHT22;10902;48.158;8.634;2023-04-10T15:37:38;14.90;99.90
21481;DHT22;10902;48.158;8.634;2023-04-10T15:40:04;15.10;99.90
21481;DHT22;10902;48.158;8.634;2023-04-10T15:42:31;15.50;99.90
21481;DHT22;10902;48.158;8.634;2023-04-10T15:44:56;15.60;99.90
21481;DHT22;10902;48.158;8.634;2023-04-10T15:47:22;15.30;99.90
21481;DHT22;10902;48.158;8.634;2023-04-10T15:49:48;15.20;99.90
21481;DHT22;10902;48.158;8.634;2023-04-10T15:52:13;15.20;99.90
21481;DHT22;10902;48.158;8.634;2023-04-10T15:54:39;14.90;99.90
21481;DHT22;10902;48.158;8.634;2023-04-10T15:57:04;15.00;99.90
21481;DHT22;10902;48.158;8.634;2023-04-10T15:59:31;14.70;99.90
21481;DHT22;10902;48.158;8.634;2023-04-10T16:01:57;14.50;99.90
21481;DHT22;10902;48.158;8.634;2023-04-10T16:04:23;14.30;99.90
21481;DHT22;10902;48.158;8.634;2023-04-10T16:06:48;14.30;99.90
21481;DHT22;10902;48.158;8.634;2023-04-10T16:09:14;14.30;99.90
21481;DHT22;10902;48.158;8.634;2023-04-10T16:11:40;14.30;99.90
21481;DHT22;10902;48.158;8.634;2023-04-10T16:14:06;14.40;99.90
21481;DHT22;10902;48.158;8.634;2023-04-10T16:16:31;14.30;99.90
21481;DHT22;10902;48.158;8.634;2023-04-10T16:18:57;14.30;99.90
21481;DHT22;10902;48.158;8.634;2023-04-10T16:21:25;14.40;99.90